createdAt,value
2018-08-31T00:02:26.856Z,56116.95
2018-08-31T00:05:40.657Z,56134.43
2018-08-31T00:08:35.068Z,56125.18
2018-08-31T00:11:21.401Z,56129.29
2018-08-31T00:13:50.571Z,56135.46
2018-08-31T00:16:19.670Z,56148.83
2018-08-31T00:18:48.843Z,56126.21
2018-08-31T00:21:17.940Z,56116.95
2018-08-31T00:24:04.227Z,56121.07
2018-08-31T00:26:50.457Z,56123.12
2018-08-31T00:29:49.006Z,56138.55
2018-08-31T00:34:48.107Z,56117.98
2018-08-31T00:37:34.846Z,56126.21
2018-08-31T00:40:19.172Z,56125.18
2018-08-31T00:45:25.543Z,56142.66
2018-08-31T00:47:54.716Z,56116.95
2018-08-31T00:50:23.925Z,56112.84
2018-08-31T00:52:53.060Z,56124.15
2018-08-31T00:55:22.219Z,56123.12
2018-08-31T00:57:51.896Z,56125.18
2018-08-31T01:00:21.516Z,56148.83
2018-08-31T01:02:50.673Z,56100.50
2018-08-31T01:05:20.107Z,56123.12
2018-08-31T01:07:49.706Z,56146.77
2018-08-31T01:10:20.542Z,56134.43
2018-08-31T01:12:49.839Z,56170.42
2018-08-31T01:15:18.957Z,56125.18
2018-08-31T01:17:48.095Z,56143.69
2018-08-31T01:20:17.262Z,56147.80
2018-08-31T01:22:46.618Z,56141.63
2018-08-31T01:25:15.747Z,56100.50
2018-08-31T01:27:44.888Z,56141.63
2018-08-31T01:30:14.058Z,56150.89
2018-08-31T01:32:43.150Z,56157.05
2018-08-31T01:35:12.279Z,56139.57
2018-08-31T01:37:41.444Z,56151.91
2018-08-31T01:40:10.619Z,56133.41
2018-08-31T01:42:39.710Z,56126.21
2018-08-31T01:45:08.862Z,56130.32
2018-08-31T01:47:37.953Z,56125.18
2018-08-31T01:50:07.084Z,56130.32
2018-08-31T01:52:36.213Z,56170.42
2018-08-31T01:55:05.300Z,56145.75
2018-08-31T01:57:34.443Z,56135.46
2018-08-31T02:00:03.802Z,56119.01
2018-08-31T02:02:32.889Z,56099.47
2018-08-31T02:05:02.008Z,56127.23
2018-08-31T02:07:31.164Z,56172.48
2018-08-31T02:10:00.335Z,56143.69
2018-08-31T02:12:29.434Z,56157.05
2018-08-31T02:14:58.594Z,56164.25
2018-08-31T02:17:27.734Z,56166.31
2018-08-31T02:19:56.986Z,56139.57
2018-08-31T02:22:26.128Z,56125.18
2018-08-31T02:24:55.296Z,56120.04
2018-08-31T02:27:24.406Z,56141.63
2018-08-31T02:29:53.604Z,56137.52
2018-08-31T02:32:22.670Z,56150.89
2018-08-31T02:34:51.783Z,56150.89
2018-08-31T02:37:20.951Z,56137.52
2018-08-31T02:39:50.067Z,56153.97
2018-08-31T02:42:20.739Z,56138.55
2018-08-31T02:44:49.825Z,56159.11
2018-08-31T02:47:18.958Z,56132.38
2018-08-31T02:49:48.105Z,56160.14
2018-08-31T02:52:17.210Z,56138.55
2018-08-31T02:54:46.278Z,56169.39
2018-08-31T02:57:15.394Z,56128.27
2018-08-31T02:59:44.559Z,56145.75
2018-08-31T03:02:13.706Z,56162.20
2018-08-31T03:04:42.900Z,56160.14
2018-08-31T03:07:12.039Z,56175.56
2018-08-31T03:09:41.221Z,56151.91
2018-08-31T03:12:10.304Z,56132.38
2018-08-31T03:14:39.471Z,56145.75
2018-08-31T03:17:08.644Z,56137.52
2018-08-31T03:19:37.785Z,56170.42
2018-08-31T03:22:06.858Z,56184.82
2018-08-31T03:24:35.989Z,56133.41
2018-08-31T03:27:05.243Z,56121.07
2018-08-31T03:29:34.361Z,56141.63
2018-08-31T03:32:03.658Z,56151.91
2018-08-31T03:34:32.829Z,56145.75
2018-08-31T03:37:01.941Z,56137.52
2018-08-31T03:39:31.109Z,56158.09
2018-08-31T03:42:00.316Z,56133.41
2018-08-31T03:44:29.426Z,56146.77
2018-08-31T03:46:58.712Z,56135.46
2018-08-31T03:49:27.851Z,56122.09
2018-08-31T03:51:57.016Z,56160.14
2018-08-31T03:54:26.201Z,56152.94
2018-08-31T03:56:55.467Z,56129.29
2018-08-31T03:59:24.678Z,56146.77
2018-08-31T04:01:53.798Z,56136.49
2018-08-31T04:04:22.955Z,56151.91
2018-08-31T04:06:52.175Z,56188.93
2018-08-31T04:09:23.844Z,56164.25
2018-08-31T04:11:53.005Z,56145.75
2018-08-31T04:14:22.182Z,56141.63
2018-08-31T04:16:51.342Z,56144.71
2018-08-31T04:19:20.548Z,56151.91
2018-08-31T04:21:49.720Z,56159.11
2018-08-31T04:24:18.876Z,56160.14
2018-08-31T04:26:48.276Z,56144.71
2018-08-31T04:29:17.377Z,56163.23
2018-08-31T04:31:46.506Z,56163.23
2018-08-31T04:34:15.665Z,56161.17
2018-08-31T04:36:44.949Z,56182.76
2018-08-31T04:39:14.578Z,56161.17
2018-08-31T04:41:44.503Z,56156.03
2018-08-31T04:44:13.682Z,56136.49
2018-08-31T04:46:42.790Z,56122.09
2018-08-31T04:49:11.927Z,56137.52
2018-08-31T04:51:41.088Z,56156.03
2018-08-31T04:54:10.228Z,56153.97
2018-08-31T04:56:39.585Z,56138.55
2018-08-31T04:59:08.695Z,56112.84
2018-08-31T05:01:37.808Z,56116.95
2018-08-31T05:04:06.978Z,56149.86
2018-08-31T05:06:36.393Z,56151.91
2018-08-31T05:09:08.899Z,56139.57
2018-08-31T05:11:38.063Z,56135.46
2018-08-31T05:14:07.170Z,56150.89
2018-08-31T05:16:36.302Z,56136.49
2018-08-31T05:19:05.426Z,56135.46
2018-08-31T05:21:34.672Z,56125.18
2018-08-31T05:24:03.863Z,56127.23
2018-08-31T05:26:33.056Z,56130.32
2018-08-31T05:29:02.255Z,56149.86
2018-08-31T05:31:31.442Z,56117.98
2018-08-31T05:34:00.690Z,56160.14
2018-08-31T05:36:29.889Z,56133.41
2018-08-31T05:38:59.064Z,56116.95
2018-08-31T05:41:28.329Z,56119.01
2018-08-31T05:43:57.457Z,56139.57
2018-08-31T05:46:26.645Z,56112.84
2018-08-31T05:48:55.887Z,56116.95
2018-08-31T05:51:25.062Z,56114.90
2018-08-31T05:53:54.183Z,56092.28
2018-08-31T05:56:23.417Z,56080.96
2018-08-31T05:58:52.591Z,56109.76
2018-08-31T06:01:21.737Z,56082.00
2018-08-31T06:03:50.957Z,56096.39
2018-08-31T06:06:20.113Z,56106.67
2018-08-31T06:08:49.289Z,56106.67
2018-08-31T06:11:18.490Z,56075.82
2018-08-31T06:13:47.711Z,56088.16
2018-08-31T06:16:16.852Z,56126.21
2018-08-31T06:18:45.964Z,56084.05
2018-08-31T06:21:15.121Z,56096.39
2018-08-31T06:23:44.287Z,56076.85
2018-08-31T06:26:13.411Z,56071.71
2018-08-31T06:28:42.561Z,56072.74
2018-08-31T06:31:11.705Z,56053.20
2018-08-31T06:33:41.002Z,56157.05
2018-08-31T06:36:10.187Z,56061.43
2018-08-31T06:38:39.375Z,56037.78
2018-08-31T06:41:08.601Z,56096.39
2018-08-31T06:43:37.757Z,56065.54
2018-08-31T06:46:06.916Z,56064.51
2018-08-31T06:48:36.101Z,56059.37
2018-08-31T06:51:05.295Z,56070.68
2018-08-31T06:53:34.503Z,56038.81
2018-08-31T06:56:03.699Z,56061.43
2018-08-31T06:58:32.801Z,56096.39
2018-08-31T07:01:01.963Z,56058.34
2018-08-31T07:03:31.061Z,56073.77
2018-08-31T07:06:00.184Z,56051.14
2018-08-31T07:08:29.348Z,56057.32
2018-08-31T07:10:58.498Z,56051.14
2018-08-31T07:13:27.671Z,56063.48
2018-08-31T07:15:56.858Z,56064.51
2018-08-31T07:18:26.052Z,56073.77
2018-08-31T07:20:55.178Z,56063.48
2018-08-31T07:23:24.416Z,56044.98
2018-08-31T07:25:53.730Z,56038.81
2018-08-31T07:28:22.848Z,56055.26
2018-08-31T07:30:51.988Z,56032.64
2018-08-31T07:33:21.128Z,56050.12
2018-08-31T07:35:51.140Z,56016.19
2018-08-31T07:38:20.195Z,56036.75
2018-08-31T07:40:49.545Z,56066.57
2018-08-31T07:43:18.695Z,56023.38
2018-08-31T07:45:47.864Z,56056.29
2018-08-31T07:48:17.030Z,56020.30
2018-08-31T07:50:46.200Z,56051.14
2018-08-31T07:53:15.339Z,56030.58
2018-08-31T07:55:44.458Z,56032.64
2018-08-31T07:58:13.595Z,56041.89
2018-08-31T08:00:42.749Z,56028.52
2018-08-31T08:03:12.080Z,56030.58
2018-08-31T08:05:41.279Z,56070.68
2018-08-31T08:08:10.371Z,56034.70
2018-08-31T08:10:39.458Z,56038.81
2018-08-31T08:13:08.578Z,56038.81
2018-08-31T08:15:37.762Z,56053.20
2018-08-31T08:18:07.130Z,56035.72
2018-08-31T08:20:36.288Z,56024.41
2018-08-31T08:23:05.539Z,56053.20
2018-08-31T08:25:34.681Z,56032.64
2018-08-31T08:28:03.816Z,56028.52
2018-08-31T08:30:32.962Z,56030.58
2018-08-31T08:33:02.147Z,56044.98
2018-08-31T08:35:31.305Z,56044.98
2018-08-31T08:38:00.474Z,56007.96
2018-08-31T08:40:29.564Z,56038.81
2018-08-31T08:42:58.686Z,56029.55
2018-08-31T08:45:27.917Z,56013.10
2018-08-31T08:47:57.146Z,56010.02
2018-08-31T08:50:26.261Z,56029.55
2018-08-31T08:52:55.424Z,56038.81
2018-08-31T08:55:24.622Z,56014.13
2018-08-31T08:57:53.741Z,56022.36
2018-08-31T09:00:22.899Z,56069.65
2018-08-31T09:02:52.048Z,56042.92
2018-08-31T09:05:21.363Z,56054.23
2018-08-31T09:07:50.516Z,55997.68
2018-08-31T09:10:19.645Z,55997.68
2018-08-31T09:12:48.797Z,56007.96
2018-08-31T09:15:17.969Z,56008.99
2018-08-31T09:17:47.107Z,56029.55
2018-08-31T09:20:16.303Z,56012.07
2018-08-31T09:22:45.497Z,56010.02
2018-08-31T09:25:14.635Z,55997.68
2018-08-31T09:27:43.826Z,55995.62
2018-08-31T09:30:18.387Z,55962.72
2018-08-31T09:32:47.593Z,55893.83
2018-08-31T09:35:16.716Z,55897.94
2018-08-31T09:37:45.922Z,55884.57
2018-08-31T09:40:15.068Z,55873.27
2018-08-31T09:42:44.187Z,55940.10
2018-08-31T09:45:13.340Z,55914.39
2018-08-31T09:47:42.536Z,55921.59
2018-08-31T09:50:11.694Z,55902.05
2018-08-31T09:52:40.811Z,55925.70
2018-08-31T09:55:10.000Z,55917.48
2018-08-31T09:57:39.129Z,55940.10
2018-08-31T10:00:08.287Z,55874.29
2018-08-31T10:02:39.935Z,55933.93
2018-08-31T10:05:09.517Z,55944.21
2018-08-31T10:07:38.648Z,55921.59
2018-08-31T10:10:07.834Z,55946.27
2018-08-31T10:12:36.960Z,55933.93
2018-08-31T10:15:06.141Z,55927.76
2018-08-31T10:17:35.323Z,55948.32
2018-08-31T10:20:04.448Z,55914.39
2018-08-31T10:22:33.705Z,55912.34
2018-08-31T10:25:02.900Z,55951.41
2018-08-31T10:27:32.069Z,55924.68
2018-08-31T10:30:01.228Z,55956.55
2018-08-31T10:32:30.382Z,55959.63
2018-08-31T10:34:59.591Z,55925.70
2018-08-31T10:37:28.658Z,55990.48
2018-08-31T10:39:57.837Z,55962.72
2018-08-31T10:42:26.928Z,55919.54
2018-08-31T10:44:56.064Z,55950.38
2018-08-31T10:47:25.187Z,55995.62
2018-08-31T10:49:54.451Z,56036.75
2018-08-31T10:52:23.540Z,55993.57
2018-08-31T10:54:52.876Z,56014.13
2018-08-31T10:57:22.019Z,56002.82
2018-08-31T10:59:51.169Z,55950.38
2018-08-31T11:02:20.291Z,56028.52
2018-08-31T11:04:49.424Z,55975.06
2018-08-31T11:07:18.600Z,55987.40
2018-08-31T11:09:47.703Z,55966.83
2018-08-31T11:12:17.033Z,55944.21
2018-08-31T11:14:46.182Z,55951.41
2018-08-31T11:17:15.390Z,55934.96
2018-08-31T11:19:44.565Z,55967.86
2018-08-31T11:22:13.733Z,56001.79
2018-08-31T11:24:42.912Z,55958.61
2018-08-31T11:27:12.030Z,55991.51
2018-08-31T11:29:41.252Z,55963.75
2018-08-31T11:32:10.697Z,55959.63
2018-08-31T11:34:39.908Z,55966.83
2018-08-31T11:37:09.016Z,56022.36
2018-08-31T11:39:38.111Z,56012.07
2018-08-31T11:42:07.362Z,56000.76
2018-08-31T11:44:36.587Z,55979.17
2018-08-31T11:47:05.782Z,56003.85
2018-08-31T11:49:34.924Z,56002.82
2018-08-31T11:52:04.129Z,56028.52
2018-08-31T11:54:33.396Z,56017.21
2018-08-31T11:57:02.537Z,55975.06
2018-08-31T11:59:31.693Z,55987.40
2018-08-31T12:02:00.882Z,55991.51
2018-08-31T12:04:29.995Z,55953.46
2018-08-31T12:06:59.102Z,55981.23
2018-08-31T12:09:28.278Z,55959.63
2018-08-31T12:11:57.403Z,55958.61
2018-08-31T12:14:26.535Z,55979.17
2018-08-31T12:16:55.716Z,56012.07
2018-08-31T12:19:24.910Z,55981.23
2018-08-31T12:21:54.869Z,55970.95
2018-08-31T12:24:24.170Z,55987.40
2018-08-31T12:26:53.502Z,56025.44
2018-08-31T12:29:22.620Z,56000.76
2018-08-31T12:31:51.753Z,55993.57
2018-08-31T12:34:23.789Z,55955.52
2018-08-31T12:36:52.974Z,55984.31
2018-08-31T12:39:22.121Z,55957.58
2018-08-31T12:41:51.372Z,55969.92
2018-08-31T12:44:20.615Z,55955.52
2018-08-31T12:46:49.724Z,55946.27
2018-08-31T12:49:19.062Z,55948.32
2018-08-31T12:51:48.187Z,55946.27
2018-08-31T12:54:17.325Z,55950.38
2018-08-31T12:56:46.574Z,55933.93
2018-08-31T12:59:15.813Z,55959.63
2018-08-31T13:01:44.989Z,55915.42
2018-08-31T13:04:14.118Z,55921.59
2018-08-31T13:06:43.233Z,55953.46
2018-08-31T13:09:12.512Z,55938.04
2018-08-31T13:11:41.625Z,55913.36
2018-08-31T13:14:10.781Z,55900.00
2018-08-31T13:16:40.041Z,55916.45
2018-08-31T13:19:09.237Z,55911.31
2018-08-31T13:21:38.365Z,55904.11
2018-08-31T13:24:07.588Z,55929.82
2018-08-31T13:26:36.739Z,55878.41
2018-08-31T13:29:05.839Z,55933.93
2018-08-31T13:31:35.099Z,55915.42
2018-08-31T13:34:04.187Z,55878.41
2018-08-31T13:36:33.519Z,55912.34
2018-08-31T13:39:02.674Z,55902.05
2018-08-31T13:41:31.884Z,55919.54
2018-08-31T13:44:01.007Z,55894.86
2018-08-31T13:46:30.270Z,55877.38
2018-08-31T13:48:59.375Z,55935.98
2018-08-31T13:51:28.555Z,55939.07
2018-08-31T13:53:57.754Z,55897.94
2018-08-31T13:56:26.878Z,55868.12
2018-08-31T13:58:57.295Z,55948.32
2018-08-31T14:01:26.439Z,55905.14
2018-08-31T14:03:55.941Z,55907.20
2018-08-31T14:06:25.131Z,55912.34
2018-08-31T14:08:54.350Z,55923.65
2018-08-31T14:11:23.499Z,55905.14
2018-08-31T14:13:52.675Z,55923.65
2018-08-31T14:16:21.811Z,55925.70
2018-08-31T14:18:50.990Z,55922.62
2018-08-31T14:21:20.331Z,55895.89
2018-08-31T14:23:49.526Z,55907.20
2018-08-31T14:26:18.688Z,55921.59
2018-08-31T14:28:47.801Z,55942.16
2018-08-31T14:31:16.970Z,55923.65
2018-08-31T14:33:46.371Z,55891.77
2018-08-31T14:36:15.532Z,55894.86
2018-08-31T14:38:44.669Z,55901.03
2018-08-31T14:41:13.785Z,55905.14
2018-08-31T14:43:42.929Z,55917.48
2018-08-31T14:46:12.048Z,55880.46
2018-08-31T14:48:41.188Z,55893.83
2018-08-31T14:51:10.385Z,55922.62
2018-08-31T14:53:39.503Z,55918.50
2018-08-31T14:56:08.676Z,55950.38
2018-08-31T14:58:37.904Z,55964.78
2018-08-31T15:01:07.035Z,55964.78
2018-08-31T15:03:36.192Z,55940.10
2018-08-31T15:06:05.470Z,55913.36
2018-08-31T15:08:34.687Z,55949.35
2018-08-31T15:11:04.561Z,55963.75
2018-08-31T15:13:33.672Z,55930.84
2018-08-31T15:16:02.855Z,55940.10
2018-08-31T15:18:32.023Z,55946.27
2018-08-31T15:21:01.141Z,55925.70
2018-08-31T15:23:30.327Z,55959.63
2018-08-31T15:25:59.441Z,55991.51
2018-08-31T15:28:28.540Z,55929.82
2018-08-31T15:30:57.693Z,55985.34
2018-08-31T15:33:26.833Z,55958.61
2018-08-31T15:35:56.005Z,55959.63
2018-08-31T15:38:25.203Z,55963.75
2018-08-31T15:40:54.431Z,55981.23
2018-08-31T15:43:23.836Z,55976.09
2018-08-31T15:45:52.982Z,55933.93
2018-08-31T15:48:22.156Z,55977.11
2018-08-31T15:50:51.360Z,55959.63
2018-08-31T15:53:20.515Z,55977.11
2018-08-31T15:55:49.696Z,55985.34
2018-08-31T15:58:18.916Z,55941.13
2018-08-31T16:00:48.099Z,55952.44
2018-08-31T16:03:17.245Z,55986.37
2018-08-31T16:05:46.439Z,55975.06
2018-08-31T16:08:15.820Z,55952.44
2018-08-31T16:10:45.037Z,55993.57
2018-08-31T16:13:14.261Z,55996.65
2018-08-31T16:15:43.513Z,55980.20
2018-08-31T16:18:12.632Z,55983.28
2018-08-31T16:20:41.809Z,55982.25
2018-08-31T16:23:11.202Z,55975.06
2018-08-31T16:25:40.348Z,56004.87
2018-08-31T16:28:09.458Z,55956.55
2018-08-31T16:30:38.546Z,56004.87
2018-08-31T16:33:07.883Z,55992.54
2018-08-31T16:35:37.061Z,55990.48
2018-08-31T16:38:06.232Z,56010.02
2018-08-31T16:40:35.534Z,55997.68
2018-08-31T16:43:04.747Z,56006.93
2018-08-31T16:45:33.910Z,56010.02
2018-08-31T16:48:03.055Z,55975.06
2018-08-31T16:50:32.212Z,56001.79
2018-08-31T16:53:01.335Z,55995.62
2018-08-31T16:55:30.573Z,55981.23
2018-08-31T16:57:59.979Z,55975.06
2018-08-31T17:00:29.117Z,55968.89
2018-08-31T17:02:58.252Z,55997.68
2018-08-31T17:05:27.507Z,56012.07
2018-08-31T17:07:56.700Z,55976.09
2018-08-31T17:10:25.776Z,55979.17
2018-08-31T17:12:54.882Z,55989.45
2018-08-31T17:15:23.982Z,56006.93
2018-08-31T17:17:53.148Z,55980.20
2018-08-31T17:20:22.265Z,55995.62
2018-08-31T17:22:51.498Z,55996.65
2018-08-31T17:25:20.577Z,56000.76
2018-08-31T17:27:54.981Z,55987.40
2018-08-31T17:30:24.238Z,56017.21
2018-08-31T17:32:58.829Z,56002.82
2018-08-31T17:35:33.261Z,55988.43
2018-08-31T17:38:02.819Z,56013.10
2018-08-31T17:40:31.959Z,56026.47
2018-08-31T17:43:01.958Z,56025.44
2018-08-31T17:45:31.100Z,56016.19
2018-08-31T17:48:00.201Z,56030.58
2018-08-31T17:50:29.323Z,56026.47
2018-08-31T17:52:58.435Z,56015.16
2018-08-31T17:55:27.525Z,56008.99
2018-08-31T17:57:56.686Z,56036.75
2018-08-31T18:00:25.835Z,56019.27
2018-08-31T18:02:54.959Z,56028.52
2018-08-31T18:05:24.092Z,56020.30
2018-08-31T18:07:53.269Z,56038.81
2018-08-31T18:10:22.477Z,56035.72
2018-08-31T18:12:51.608Z,56047.03
2018-08-31T18:15:20.771Z,56055.26
2018-08-31T18:17:49.880Z,56013.10
2018-08-31T18:20:19.050Z,56019.27
2018-08-31T18:22:48.178Z,56026.47
2018-08-31T18:25:17.241Z,56028.52
2018-08-31T18:27:46.443Z,56059.37
2018-08-31T18:30:15.545Z,56008.99
2018-08-31T18:32:44.636Z,56003.85
2018-08-31T18:35:13.918Z,56019.27
2018-08-31T18:37:43.016Z,56020.30
2018-08-31T18:40:12.165Z,56054.23
2018-08-31T18:42:41.331Z,56041.89
2018-08-31T18:45:10.453Z,56040.86
2018-08-31T18:47:39.559Z,56027.50
2018-08-31T18:50:08.719Z,56026.47
2018-08-31T18:52:37.862Z,56036.75
2018-08-31T18:55:06.996Z,56018.24
2018-08-31T18:57:36.224Z,56032.64
2018-08-31T19:00:05.591Z,56015.16
2018-08-31T19:02:34.745Z,56049.09
2018-08-31T19:05:03.875Z,56013.10
2018-08-31T19:07:33.055Z,56016.19
2018-08-31T19:10:02.333Z,56000.76
2018-08-31T19:12:31.530Z,56038.81
2018-08-31T19:15:00.722Z,56028.52
2018-08-31T19:17:29.877Z,56046.00
2018-08-31T19:19:59.087Z,56017.21
2018-08-31T19:22:28.465Z,56023.38
2018-08-31T19:24:57.667Z,56040.86
2018-08-31T19:27:26.828Z,56044.98
2018-08-31T19:29:56.088Z,56010.02
2018-08-31T19:32:25.265Z,56024.41
2018-08-31T19:34:54.435Z,56047.03
2018-08-31T19:37:23.674Z,56034.70
2018-08-31T19:39:52.944Z,56040.86
2018-08-31T19:42:22.161Z,56029.55
2018-08-31T19:44:51.253Z,56014.13
2018-08-31T19:47:20.421Z,56015.16
2018-08-31T19:49:49.589Z,56026.47
2018-08-31T19:52:18.824Z,56030.58
2018-08-31T19:57:45.745Z,56028.52
2018-08-31T20:00:14.873Z,56020.30
2018-08-31T20:02:44.170Z,56005.90
2018-08-31T20:05:13.294Z,56051.14
2018-08-31T20:07:42.433Z,56026.47
2018-08-31T20:10:11.861Z,56032.64
2018-08-31T20:12:41.055Z,56042.92
2018-08-31T20:15:10.255Z,55997.68
2018-08-31T20:17:39.364Z,56014.13
2018-08-31T20:20:08.464Z,56005.90
2018-08-31T20:22:37.594Z,56010.02
2018-08-31T20:25:06.709Z,56026.47
2018-08-31T20:27:42.591Z,56027.50
2018-08-31T20:30:11.723Z,56058.34
2018-08-31T20:32:40.906Z,56042.92
2018-08-31T20:35:10.052Z,56038.81
2018-08-31T20:37:39.215Z,56049.09
2018-08-31T20:40:08.373Z,56010.02
2018-08-31T20:42:37.495Z,56032.64
2018-08-31T20:45:07.598Z,56040.86
2018-08-31T20:47:36.794Z,56028.52
2018-08-31T20:50:06.199Z,56014.13
2018-08-31T20:52:35.348Z,56032.64
2018-08-31T20:55:04.470Z,56054.23
2018-08-31T20:57:33.587Z,56020.30
2018-08-31T21:00:02.709Z,56061.43
2018-08-31T21:02:31.927Z,56046.00
2018-08-31T21:05:01.029Z,56047.03
2018-08-31T21:07:30.114Z,56041.89
2018-08-31T21:09:59.224Z,56031.61
2018-08-31T21:12:28.323Z,56040.86
2018-08-31T21:14:57.477Z,56055.26
2018-08-31T21:17:26.639Z,56067.60
2018-08-31T21:19:55.719Z,56055.26
2018-08-31T21:22:24.876Z,56057.32
2018-08-31T21:24:54.046Z,56019.27
2018-08-31T21:27:23.125Z,56062.46
2018-08-31T21:29:52.194Z,56038.81
2018-08-31T21:32:21.350Z,56029.55
2018-08-31T21:34:50.467Z,56056.29
2018-08-31T21:37:19.541Z,56049.09
2018-08-31T21:39:48.640Z,56046.00
2018-08-31T21:42:17.833Z,56061.43
2018-08-31T21:44:46.808Z,56068.62
2018-08-31T21:47:15.889Z,56028.52
2018-08-31T21:49:45.007Z,56051.14
2018-08-31T21:52:14.128Z,56030.58
2018-08-31T21:54:43.300Z,56018.24
2018-08-31T21:57:12.387Z,56078.91
2018-08-31T21:59:41.536Z,56086.11
2018-08-31T22:02:10.678Z,56084.05
2018-08-31T22:04:39.816Z,56083.02
2018-08-31T22:07:09.126Z,56055.26
2018-08-31T22:09:38.283Z,56049.09
2018-08-31T22:12:07.434Z,56064.51
2018-08-31T22:14:36.585Z,56034.70
2018-08-31T22:17:05.731Z,56074.80
2018-08-31T22:19:34.875Z,56063.48
2018-08-31T22:22:03.976Z,56104.62
2018-08-31T22:24:33.143Z,56056.29
2018-08-31T22:27:02.331Z,56071.71
2018-08-31T22:29:31.458Z,56059.37
2018-08-31T22:32:00.574Z,56085.08
2018-08-31T22:34:29.767Z,56077.88
2018-08-31T22:36:58.838Z,56054.23
2018-08-31T22:39:27.961Z,56047.03
2018-08-31T22:41:57.109Z,56100.50
2018-08-31T22:44:26.225Z,56066.57
2018-08-31T22:46:55.324Z,56051.14
2018-08-31T22:49:24.636Z,56052.18
2018-08-31T22:51:53.709Z,56069.65
2018-08-31T22:54:22.863Z,56050.12
2018-08-31T22:56:51.934Z,56040.86
2018-08-31T22:59:21.082Z,56057.32
2018-08-31T23:01:50.240Z,56065.54
2018-08-31T23:04:19.372Z,56049.09
2018-08-31T23:06:48.491Z,56072.74
2018-08-31T23:09:17.758Z,56069.65
2018-08-31T23:11:46.964Z,56035.72
2018-08-31T23:14:16.132Z,56047.03
2018-08-31T23:16:45.257Z,56049.09
2018-08-31T23:19:14.425Z,56066.57
2018-08-31T23:21:43.552Z,56022.36
2018-08-31T23:24:12.626Z,56061.43
2018-08-31T23:26:41.876Z,56086.11
2018-08-31T23:29:11.024Z,56058.34
2018-08-31T23:31:40.172Z,56090.22
2018-08-31T23:34:09.319Z,56093.30
2018-08-31T23:36:38.484Z,56063.48
2018-08-31T23:39:08.804Z,56075.82
2018-08-31T23:41:37.949Z,56065.54
2018-08-31T23:44:07.300Z,56062.46
2018-08-31T23:46:36.519Z,56082.00
2018-08-31T23:49:05.722Z,56042.92
2018-08-31T23:51:34.848Z,56073.77
2018-08-31T23:54:04.039Z,56071.71
2018-08-31T23:56:33.185Z,56086.11
2018-08-31T23:59:02.422Z,56080.96
